createdAt,value
2023-04-27T00:04:11.598Z,10.23
2023-04-27T00:09:42.862Z,10.24
2023-04-27T00:15:14.651Z,10.23
2023-04-27T00:20:46.513Z,10.24
2023-04-27T00:26:18.126Z,10.22
2023-04-27T00:31:49.803Z,10.18
2023-04-27T00:37:21.795Z,10.08
2023-04-27T00:42:53.359Z,10.03
2023-04-27T00:48:25.259Z,10.02
2023-04-27T00:53:56.684Z,10.0
2023-04-27T00:59:29.263Z,9.98
2023-04-27T01:05:05.428Z,9.98
2023-04-27T01:10:53.343Z,9.97
2023-04-27T01:16:08.237Z,9.95
2023-04-27T01:21:39.761Z,9.9
2023-04-27T01:27:12.256Z,9.83
2023-04-27T01:32:43.224Z,9.8
2023-04-27T01:38:14.918Z,9.75
2023-04-27T01:43:46.679Z,9.67
2023-04-27T01:49:18.789Z,9.66
2023-04-27T01:54:50.369Z,9.64
2023-04-27T02:00:21.914Z,9.63
2023-04-27T02:06:00.540Z,9.63
2023-04-27T02:11:31.960Z,9.57
2023-04-27T02:17:03.389Z,9.55
2023-04-27T02:22:35.484Z,9.55
2023-04-27T02:28:06.849Z,9.59
2023-04-27T02:33:39.023Z,9.56
2023-04-27T02:39:10.212Z,9.56
2023-04-27T02:44:41.991Z,9.58
2023-04-27T02:50:14.717Z,9.58
2023-04-27T02:55:45.408Z,9.59
2023-04-27T03:01:17.278Z,9.6
2023-04-27T03:06:55.257Z,9.58
2023-04-27T03:12:27.208Z,9.58
2023-04-27T03:17:58.789Z,9.59
2023-04-27T03:23:31.479Z,9.58
2023-04-27T03:29:02.536Z,9.59
2023-04-27T03:34:34.224Z,9.57
2023-04-27T03:40:05.639Z,9.56
2023-04-27T03:45:37.580Z,9.56
2023-04-27T03:51:09.033Z,9.6
2023-04-27T03:56:40.758Z,9.58
2023-04-27T04:02:13.692Z,9.56
2023-04-27T04:07:48.607Z,9.56
2023-04-27T04:13:20.966Z,9.57
2023-04-27T04:18:52.298Z,9.56
2023-04-27T04:24:24.175Z,9.57
2023-04-27T04:29:55.522Z,9.59
2023-04-27T04:35:27.256Z,9.58
2023-04-27T04:40:58.966Z,9.61
2023-04-27T04:46:30.809Z,9.66
2023-04-27T04:52:02.395Z,9.65
2023-04-27T04:57:34.697Z,9.71
2023-04-27T05:03:06.166Z,9.71
2023-04-27T05:08:44.046Z,9.77
2023-04-27T05:14:16.049Z,9.77
2023-04-27T05:19:47.498Z,9.75
2023-04-27T05:25:19.358Z,9.82
2023-04-27T05:30:51.360Z,9.73
2023-04-27T05:36:22.609Z,9.92
2023-04-27T05:41:54.854Z,9.78
2023-04-27T05:47:26.387Z,9.98
2023-04-27T05:52:57.769Z,10.01
2023-04-27T05:58:29.844Z,10.01
2023-04-27T06:04:03.434Z,10.3
2023-04-27T06:09:37.693Z,10.46
2023-04-27T06:15:09.041Z,10.43
2023-04-27T06:20:40.767Z,10.35
2023-04-27T06:26:12.482Z,10.67
2023-04-27T06:31:44.252Z,10.85
2023-04-27T06:37:15.991Z,10.97
2023-04-27T06:42:47.684Z,11.01
2023-04-27T06:48:19.469Z,10.96
2023-04-27T06:53:51.093Z,11.27
2023-04-27T06:59:22.795Z,11.47
2023-04-27T07:04:54.824Z,11.72
2023-04-27T07:10:32.672Z,11.68
2023-04-27T07:16:04.527Z,11.66
2023-04-27T07:21:36.447Z,11.99
2023-04-27T07:27:08.318Z,11.77
2023-04-27T07:32:39.701Z,12.39
2023-04-27T07:38:12.120Z,13.12
2023-04-27T07:43:43.365Z,13.73
2023-04-27T07:49:15.017Z,13.49
2023-04-27T07:54:46.586Z,14.12
2023-04-27T08:00:18.814Z,13.48
2023-04-27T08:05:50.673Z,13.86
2023-04-27T08:11:26.525Z,13.58
2023-04-27T08:16:58.200Z,13.96
2023-04-27T08:22:29.586Z,14.06
2023-04-27T08:28:01.504Z,13.93
2023-04-27T08:33:33.001Z,14.34
2023-04-27T08:39:04.676Z,14.18
2023-04-27T08:44:36.515Z,14.9
2023-04-27T08:50:08.471Z,15.24
2023-04-27T08:55:40.193Z,14.83
2023-04-27T09:01:11.895Z,15.61
2023-04-27T09:06:43.338Z,15.6
2023-04-27T09:12:19.454Z,15.55
2023-04-27T09:17:51.297Z,14.82
2023-04-27T09:23:22.874Z,15.17
2023-04-27T09:28:54.833Z,15.4
2023-04-27T09:34:26.595Z,15.51
2023-04-27T09:39:58.115Z,15.34
2023-04-27T09:45:31.403Z,15.46
2023-04-27T09:51:01.580Z,15.8
2023-04-27T09:56:33.275Z,15.96
2023-04-27T10:02:13.511Z,16.49
2023-04-27T10:07:37.198Z,16.78
2023-04-27T10:13:14.888Z,16.88
2023-04-27T10:18:46.763Z,16.97
2023-04-27T10:24:18.432Z,17.02
2023-04-27T10:29:50.786Z,16.98
2023-04-27T10:35:22.098Z,17.44
2023-04-27T10:40:54.728Z,17.66
2023-04-27T10:46:25.826Z,18.01
2023-04-27T10:51:57.309Z,17.79
2023-04-27T10:57:28.972Z,17.95
2023-04-27T11:03:00.781Z,17.72
2023-04-27T11:08:32.726Z,17.32
2023-04-27T11:14:09.317Z,17.42
2023-04-27T11:19:40.270Z,17.96
2023-04-27T11:25:12.238Z,18.08
2023-04-27T11:30:44.046Z,17.91
2023-04-27T11:36:15.714Z,18.1
2023-04-27T11:41:47.401Z,18.43
2023-04-27T11:47:19.130Z,18.18
2023-04-27T11:52:50.789Z,18.1
2023-04-27T11:58:22.776Z,17.58
2023-04-27T12:03:54.961Z,18.2
2023-04-27T12:09:26.002Z,18.68
2023-04-27T12:15:02.145Z,18.23
2023-04-27T12:20:33.886Z,18.56
2023-04-27T12:26:06.486Z,19.15
2023-04-27T12:31:37.785Z,19.19
2023-04-27T12:37:09.002Z,18.83
2023-04-27T12:42:41.015Z,18.95
2023-04-27T12:48:12.874Z,18.71
2023-04-27T12:53:44.424Z,18.99
2023-04-27T12:59:16.145Z,19.01
2023-04-27T13:04:47.912Z,18.69
2023-04-27T13:10:19.331Z,19.31
2023-04-27T13:15:57.679Z,19.41
2023-04-27T13:21:29.440Z,18.91
2023-04-27T13:27:00.849Z,19.33
2023-04-27T13:32:32.733Z,18.98
2023-04-27T13:38:04.291Z,18.72
2023-04-27T13:43:36.032Z,18.94
2023-04-27T13:49:08.005Z,18.76
2023-04-27T13:54:39.471Z,19.24
2023-04-27T14:00:11.323Z,19.54
2023-04-27T14:05:43.227Z,19.8
2023-04-27T14:11:15.227Z,19.57
2023-04-27T14:16:52.865Z,19.4
2023-04-27T14:22:24.507Z,18.94
2023-04-27T14:27:56.365Z,19.12
2023-04-27T14:33:28.002Z,19.41
2023-04-27T14:38:59.708Z,19.24
2023-04-27T14:44:31.890Z,18.82
2023-04-27T14:50:03.416Z,19.35
2023-04-27T14:55:34.863Z,19.42
2023-04-27T15:01:07.364Z,19.3
2023-04-27T15:06:38.477Z,19.31
2023-04-27T15:12:11.020Z,19.07
2023-04-27T15:17:46.335Z,19.44
2023-04-27T15:23:18.131Z,19.33
2023-04-27T15:28:49.628Z,19.43
2023-04-27T15:34:21.294Z,19.49
2023-04-27T15:39:53.550Z,19.2
2023-04-27T15:45:24.756Z,19.15
2023-04-27T15:50:56.473Z,19.44
2023-04-27T15:56:30.565Z,19.48
2023-04-27T16:01:59.953Z,19.38
2023-04-27T16:07:31.657Z,19.37
2023-04-27T16:13:03.777Z,19.14
2023-04-27T16:18:39.555Z,19.01
2023-04-27T16:24:11.535Z,19.1
2023-04-27T16:29:43.301Z,19.36
2023-04-27T16:35:15.346Z,19.04
2023-04-27T16:40:46.482Z,19.0
2023-04-27T16:46:18.250Z,19.03
2023-04-27T16:51:49.934Z,18.9
2023-04-27T16:57:21.872Z,18.94
2023-04-27T17:02:53.420Z,18.78
2023-04-27T17:08:25.065Z,18.86
2023-04-27T17:13:56.821Z,18.87
2023-04-27T17:19:35.189Z,18.54
2023-04-27T17:25:06.962Z,18.51
2023-04-27T17:30:38.388Z,18.38
2023-04-27T17:36:10.108Z,18.14
2023-04-27T17:41:41.837Z,17.99
2023-04-27T17:47:13.647Z,17.87
2023-04-27T17:52:45.511Z,17.76
2023-04-27T17:58:17.539Z,17.63
2023-04-27T18:03:48.882Z,17.45
2023-04-27T18:09:20.478Z,17.2
2023-04-27T18:14:52.517Z,17.04
2023-04-27T18:20:28.534Z,16.87
2023-04-27T18:26:00.207Z,16.79
2023-04-27T18:31:31.773Z,16.59
2023-04-27T18:37:03.721Z,16.47
2023-04-27T18:42:35.401Z,16.26
2023-04-27T18:48:06.965Z,16.06
2023-04-27T18:53:39.244Z,15.95
2023-04-27T18:59:10.344Z,15.86
2023-04-27T19:04:43.054Z,15.72
2023-04-27T19:10:14.666Z,15.67
2023-04-27T19:15:45.527Z,15.51
2023-04-27T19:21:21.621Z,15.43
2023-04-27T19:26:53.358Z,15.26
2023-04-27T19:32:25.377Z,15.18
2023-04-27T19:37:56.808Z,15.06
2023-04-27T19:43:28.822Z,14.88
2023-04-27T19:49:00.592Z,14.85
2023-04-27T19:54:31.979Z,14.76
2023-04-27T20:00:04.149Z,14.93
2023-04-27T20:05:35.776Z,14.91
2023-04-27T20:11:07.106Z,14.88
2023-04-27T20:16:39.401Z,14.81
2023-04-27T20:22:14.977Z,14.7
2023-04-27T20:27:46.744Z,14.68
2023-04-27T20:33:18.443Z,14.69
2023-04-27T20:38:50.536Z,14.65
2023-04-27T20:44:22.121Z,14.52
2023-04-27T20:49:53.863Z,14.58
2023-04-27T20:55:25.291Z,14.57
2023-04-27T21:00:57.126Z,14.5
2023-04-27T21:06:29.001Z,14.41
2023-04-27T21:12:00.670Z,14.51
2023-04-27T21:17:32.735Z,14.53
2023-04-27T21:23:08.350Z,14.5
2023-04-27T21:28:40.119Z,14.45
2023-04-27T21:34:12.079Z,14.37
2023-04-27T21:39:43.565Z,14.2
2023-04-27T21:45:15.268Z,14.26
2023-04-27T21:50:47.270Z,14.16
2023-04-27T21:56:18.953Z,14.18
2023-04-27T22:01:50.725Z,14.08
2023-04-27T22:07:22.152Z,14.04
2023-04-27T22:12:54.263Z,13.96
2023-04-27T22:18:25.656Z,13.87
2023-04-27T22:24:03.783Z,13.85
2023-04-27T22:29:35.750Z,13.77
2023-04-27T22:35:13.003Z,13.71
2023-04-27T22:40:38.935Z,13.72
2023-04-27T22:46:10.676Z,13.73
2023-04-27T22:51:42.527Z,13.7
2023-04-27T22:57:14.561Z,13.86
2023-04-27T23:02:45.975Z,14.0
2023-04-27T23:08:18.556Z,13.92
2023-04-27T23:13:49.638Z,13.86
2023-04-27T23:19:21.483Z,13.93
2023-04-27T23:24:57.172Z,13.93
2023-04-27T23:30:28.994Z,13.96
2023-04-27T23:36:00.927Z,13.95
2023-04-27T23:41:32.712Z,13.91
2023-04-27T23:47:04.358Z,13.81
2023-04-27T23:52:37.317Z,13.93
2023-04-27T23:58:07.553Z,13.87
